createdAt,value
2023-05-12T00:02:03.943Z,5.72
2023-05-12T00:04:30.817Z,5.63
2023-05-12T00:06:58.042Z,5.54
2023-05-12T00:09:24.793Z,5.46
2023-05-12T00:11:51.272Z,5.41
2023-05-12T00:14:18.038Z,5.37
2023-05-12T00:16:44.516Z,5.29
2023-05-12T00:19:11.106Z,5.23
2023-05-12T00:21:38.078Z,5.19
2023-05-12T00:24:05.398Z,5.13
2023-05-12T00:26:31.870Z,5.08
2023-05-12T00:28:58.384Z,5.00
2023-05-12T00:31:24.921Z,4.94
2023-05-12T00:33:51.596Z,4.91
2023-05-12T00:36:18.318Z,4.88
2023-05-12T00:38:44.972Z,4.83
2023-05-12T00:41:11.515Z,4.83
2023-05-12T00:43:38.113Z,4.79
2023-05-12T00:46:05.633Z,4.79
2023-05-12T00:48:33.003Z,4.82
2023-05-12T00:51:01.067Z,4.80
2023-05-12T00:53:41.096Z,4.77
2023-05-12T00:56:14.613Z,4.73
2023-05-12T00:58:41.074Z,4.67
2023-05-12T01:01:07.756Z,4.65
2023-05-12T01:03:34.696Z,4.63
2023-05-12T01:06:12.294Z,4.58
2023-05-12T01:08:39.592Z,4.56
2023-05-12T01:11:06.083Z,4.51
2023-05-12T01:13:32.640Z,4.44
2023-05-12T01:16:02.616Z,4.36
2023-05-12T01:18:31.297Z,4.33
2023-05-12T01:21:00.428Z,4.34
2023-05-12T01:23:33.804Z,4.33
2023-05-12T01:26:06.763Z,4.31
2023-05-12T01:28:35.689Z,4.27
2023-05-12T01:31:05.452Z,4.21
2023-05-12T01:33:33.464Z,4.16
2023-05-12T01:36:00.018Z,4.11
2023-05-12T01:38:27.166Z,4.04
2023-05-12T01:40:53.805Z,3.97
2023-05-12T01:43:22.073Z,3.90
2023-05-12T01:45:48.851Z,3.87
2023-05-12T01:48:15.586Z,3.87
2023-05-12T01:50:42.101Z,3.86
2023-05-12T01:53:08.734Z,3.83
2023-05-12T01:55:35.237Z,3.79
2023-05-12T01:58:01.690Z,3.75
2023-05-12T02:00:28.215Z,3.70
2023-05-12T02:02:54.800Z,3.64
2023-05-12T02:05:21.410Z,3.60
2023-05-12T02:07:48.666Z,3.53
2023-05-12T02:10:15.111Z,3.51
2023-05-12T02:12:42.007Z,3.46
2023-05-12T02:15:09.007Z,3.42
2023-05-12T02:17:35.593Z,3.39
2023-05-12T02:20:02.408Z,3.38
2023-05-12T02:22:28.874Z,3.34
2023-05-12T02:24:55.368Z,3.30
2023-05-12T02:27:21.938Z,3.25
2023-05-12T02:29:48.359Z,3.22
2023-05-12T02:32:14.880Z,3.17
2023-05-12T02:34:41.360Z,3.17
2023-05-12T02:37:08.158Z,3.21
2023-05-12T02:39:34.655Z,3.22
2023-05-12T02:42:01.159Z,3.19
2023-05-12T02:44:27.705Z,3.18
2023-05-12T02:46:54.165Z,3.15
2023-05-12T02:49:21.111Z,3.10
2023-05-12T02:51:47.557Z,3.08
2023-05-12T02:54:14.266Z,3.06
2023-05-12T02:56:41.018Z,3.04
2023-05-12T02:59:08.054Z,3.02
2023-05-12T03:01:34.538Z,3.01
2023-05-12T03:04:01.192Z,2.97
2023-05-12T03:06:28.141Z,2.93
2023-05-12T03:08:54.686Z,2.91
2023-05-12T03:11:22.307Z,2.92
2023-05-12T03:13:48.807Z,2.97
2023-05-12T03:16:15.262Z,2.99
2023-05-12T03:18:41.843Z,2.99
2023-05-12T03:21:08.477Z,3.01
2023-05-12T03:23:34.983Z,3.07
2023-05-12T03:26:01.550Z,3.11
2023-05-12T03:28:28.230Z,3.16
2023-05-12T03:30:55.175Z,3.23
2023-05-12T03:33:21.807Z,3.27
2023-05-12T03:35:48.366Z,3.31
2023-05-12T03:38:14.865Z,3.34
2023-05-12T03:40:41.485Z,3.37
2023-05-12T03:43:08.113Z,3.42
2023-05-12T03:45:34.584Z,3.46
2023-05-12T03:48:01.250Z,3.50
2023-05-12T03:50:27.931Z,3.54
2023-05-12T03:52:54.485Z,3.60
2023-05-12T03:55:21.242Z,3.65
2023-05-12T03:57:48.647Z,3.71
2023-05-12T04:00:15.737Z,3.78
2023-05-12T04:02:42.530Z,3.89
2023-05-12T04:05:09.851Z,4.01
2023-05-12T04:07:36.762Z,4.16
2023-05-12T04:10:03.983Z,4.28
2023-05-12T04:12:30.531Z,4.44
2023-05-12T04:14:58.046Z,4.62
2023-05-12T04:17:25.172Z,4.81
2023-05-12T04:19:52.217Z,5.05
2023-05-12T04:22:18.768Z,5.39
2023-05-12T04:24:45.305Z,5.67
2023-05-12T04:27:11.823Z,6.09
2023-05-12T04:29:38.336Z,6.43
2023-05-12T04:32:05.792Z,6.80
2023-05-12T04:34:32.330Z,7.00
2023-05-12T04:36:58.810Z,7.15
2023-05-12T04:39:25.620Z,7.21
2023-05-12T04:41:52.271Z,7.16
2023-05-12T04:44:19.020Z,7.02
2023-05-12T04:46:45.550Z,7.03
2023-05-12T04:49:12.488Z,7.18
2023-05-12T04:51:39.157Z,7.22
2023-05-12T04:54:06.009Z,7.31
2023-05-12T04:56:32.444Z,7.38
2023-05-12T04:58:59.019Z,7.47
2023-05-12T05:01:25.568Z,7.48
2023-05-12T05:03:52.492Z,7.61
2023-05-12T05:06:19.247Z,7.77
2023-05-12T05:08:46.019Z,7.84
2023-05-12T05:11:12.538Z,7.94
2023-05-12T05:13:39.213Z,8.15
2023-05-12T05:16:06.713Z,8.44
2023-05-12T05:18:33.260Z,8.72
2023-05-12T05:21:00.574Z,8.90
2023-05-12T05:23:27.153Z,9.00
2023-05-12T05:25:54.068Z,9.11
2023-05-12T05:28:21.028Z,9.22
2023-05-12T05:30:47.573Z,9.36
2023-05-12T05:33:14.282Z,9.57
2023-05-12T05:35:41.354Z,9.76
2023-05-12T05:38:07.814Z,9.83
2023-05-12T05:40:48.811Z,9.96
2023-05-12T05:43:19.217Z,10.26
2023-05-12T05:45:45.831Z,10.38
2023-05-12T05:48:12.318Z,10.40
2023-05-12T05:50:39.163Z,10.50
2023-05-12T05:53:05.594Z,10.55
2023-05-12T05:55:32.273Z,10.68
2023-05-12T05:57:58.837Z,10.88
2023-05-12T06:00:25.281Z,11.14
2023-05-12T06:02:51.788Z,11.41
2023-05-12T06:05:18.647Z,11.60
2023-05-12T06:07:45.392Z,11.84
2023-05-12T06:10:12.154Z,12.11
2023-05-12T06:12:38.601Z,12.36
2023-05-12T06:15:05.800Z,12.59
2023-05-12T06:17:32.777Z,12.88
2023-05-12T06:19:59.444Z,13.15
2023-05-12T06:22:26.076Z,13.51
2023-05-12T06:24:52.517Z,13.63
2023-05-12T06:27:19.090Z,13.65
2023-05-12T06:29:45.482Z,13.68
2023-05-12T06:32:11.983Z,14.00
2023-05-12T06:34:38.811Z,14.39
2023-05-12T06:37:05.379Z,14.85
2023-05-12T06:39:31.950Z,14.62
2023-05-12T06:41:58.572Z,14.51
2023-05-12T06:44:25.009Z,14.87
2023-05-12T06:46:51.492Z,15.14
2023-05-12T06:49:17.935Z,15.21
2023-05-12T06:51:44.616Z,15.72
2023-05-12T06:54:11.352Z,16.10
2023-05-12T06:56:37.931Z,16.39
2023-05-12T06:59:04.377Z,16.55
2023-05-12T07:01:32.114Z,16.75
2023-05-12T07:03:59.471Z,16.98
2023-05-12T07:06:26.325Z,17.32
2023-05-12T07:08:52.768Z,17.69
2023-05-12T07:11:19.570Z,18.06
2023-05-12T07:13:47.112Z,18.49
2023-05-12T07:16:14.537Z,18.96
2023-05-12T07:18:41.345Z,18.98
2023-05-12T07:21:08.391Z,19.12
2023-05-12T07:23:35.421Z,19.17
2023-05-12T07:26:03.599Z,19.12
2023-05-12T07:28:31.263Z,19.16
2023-05-12T07:30:58.989Z,19.35
2023-05-12T07:33:25.507Z,19.42
2023-05-12T07:35:52.066Z,19.43
2023-05-12T07:38:18.510Z,19.61
2023-05-12T07:40:45.022Z,19.69
2023-05-12T07:43:12.497Z,19.89
2023-05-12T07:45:38.897Z,19.90
2023-05-12T07:48:05.577Z,19.96
2023-05-12T07:50:32.104Z,20.36
2023-05-12T07:52:58.499Z,20.31
2023-05-12T07:55:24.984Z,20.27
2023-05-12T07:57:51.694Z,20.43
2023-05-12T08:00:18.841Z,20.80
2023-05-12T08:02:45.773Z,21.14
2023-05-12T08:05:12.770Z,21.75
2023-05-12T08:07:41.219Z,22.16
2023-05-12T08:10:08.036Z,22.50
2023-05-12T08:12:34.474Z,22.73
2023-05-12T08:15:00.923Z,22.70
2023-05-12T08:17:29.274Z,22.59
2023-05-12T08:19:56.316Z,22.88
2023-05-12T08:22:22.721Z,22.82
2023-05-12T08:24:49.247Z,22.74
2023-05-12T08:27:15.720Z,22.54
2023-05-12T08:29:42.155Z,22.27
2023-05-12T08:32:08.818Z,22.26
2023-05-12T08:34:35.459Z,22.37
2023-05-12T08:37:01.995Z,22.46
2023-05-12T08:39:28.732Z,22.45
2023-05-12T08:42:18.570Z,22.70
2023-05-12T08:44:46.582Z,22.95
2023-05-12T08:47:15.364Z,22.79
2023-05-12T08:49:44.047Z,22.82
2023-05-12T08:52:12.716Z,22.55
2023-05-12T08:54:52.164Z,22.03
2023-05-12T08:57:20.633Z,21.53
2023-05-12T08:59:47.859Z,21.36
2023-05-12T09:02:17.303Z,21.07
2023-05-12T09:04:44.355Z,20.68
2023-05-12T09:07:11.418Z,20.33
2023-05-12T09:09:39.593Z,20.26
2023-05-12T09:12:11.840Z,20.25
2023-05-12T09:14:40.449Z,20.21
2023-05-12T09:17:06.975Z,20.10
2023-05-12T09:19:33.557Z,20.07
2023-05-12T09:22:00.605Z,19.86
2023-05-12T09:24:38.142Z,19.79
2023-05-12T09:27:05.682Z,19.97
2023-05-12T09:32:02.455Z,20.49
2023-05-12T09:34:33.915Z,20.47
2023-05-12T09:37:02.599Z,20.35
2023-05-12T09:39:29.121Z,20.38
2023-05-12T09:41:56.105Z,20.26
2023-05-12T09:44:24.412Z,20.45
2023-05-12T09:46:51.472Z,20.59
2023-05-12T09:49:19.971Z,20.71
2023-05-12T09:51:46.908Z,20.80
2023-05-12T09:54:13.373Z,20.74
2023-05-12T09:56:41.200Z,20.58
2023-05-12T09:59:12.996Z,20.25
2023-05-12T10:01:39.783Z,20.30
2023-05-12T10:04:08.472Z,20.36
2023-05-12T10:06:40.507Z,20.38
2023-05-12T10:09:31.092Z,20.72
2023-05-12T10:11:58.350Z,21.41
2023-05-12T10:14:25.734Z,22.00
2023-05-12T10:16:53.496Z,22.35
2023-05-12T10:19:21.101Z,22.52
2023-05-12T10:21:48.764Z,22.86
2023-05-12T10:24:16.113Z,22.53
2023-05-12T10:26:43.975Z,22.09
2023-05-12T10:29:12.085Z,21.78
2023-05-12T10:31:39.497Z,21.51
2023-05-12T10:34:06.173Z,21.21
2023-05-12T10:36:45.888Z,21.53
2023-05-12T10:39:13.686Z,21.62
2023-05-12T10:41:40.226Z,21.55
2023-05-12T10:44:06.741Z,21.80
2023-05-12T10:46:33.256Z,21.74
2023-05-12T10:49:01.005Z,21.60
2023-05-12T10:51:29.997Z,21.44
2023-05-12T10:54:07.955Z,21.38
2023-05-12T10:56:37.691Z,20.83
2023-05-12T10:59:18.010Z,20.47
2023-05-12T11:01:59.239Z,20.38
2023-05-12T11:04:41.224Z,20.81
2023-05-12T11:07:12.210Z,21.20
2023-05-12T11:09:56.672Z,21.15
2023-05-12T11:12:28.712Z,20.98
2023-05-12T11:14:55.242Z,20.62
2023-05-12T11:17:21.798Z,20.46
2023-05-12T11:19:50.384Z,20.53
2023-05-12T11:22:19.237Z,20.65
2023-05-12T11:24:46.164Z,20.95
2023-05-12T11:27:14.930Z,21.05
2023-05-12T11:29:42.525Z,20.96
2023-05-12T11:32:10.445Z,21.08
2023-05-12T11:34:37.227Z,21.34
2023-05-12T11:37:04.911Z,21.52
2023-05-12T11:39:31.451Z,21.62
2023-05-12T11:42:12.298Z,21.37
2023-05-12T11:44:47.959Z,20.97
2023-05-12T11:47:15.781Z,20.97
2023-05-12T11:49:47.390Z,21.22
2023-05-12T11:52:13.995Z,21.32
2023-05-12T11:54:56.878Z,21.45
2023-05-12T11:57:32.496Z,21.64
2023-05-12T12:00:02.303Z,21.52
2023-05-12T12:02:28.990Z,21.29
2023-05-12T12:04:56.288Z,21.38
2023-05-12T12:07:34.123Z,21.09
2023-05-12T12:10:15.307Z,20.75
2023-05-12T12:12:42.908Z,20.58
2023-05-12T12:15:10.739Z,20.64
2023-05-12T12:17:38.169Z,20.71
2023-05-12T12:20:05.751Z,20.75
2023-05-12T12:22:32.249Z,20.90
2023-05-12T12:24:58.780Z,21.14
2023-05-12T12:27:25.206Z,21.39
2023-05-12T12:29:51.928Z,21.40
2023-05-12T12:32:18.465Z,21.37
2023-05-12T12:34:45.048Z,21.30
2023-05-12T12:37:11.774Z,21.32
2023-05-12T12:39:38.422Z,21.26
2023-05-12T12:42:05.158Z,21.00
2023-05-12T12:44:31.726Z,20.68
2023-05-12T12:46:58.271Z,20.46
2023-05-12T12:49:24.728Z,20.35
2023-05-12T12:51:51.412Z,20.36
2023-05-12T12:54:18.012Z,20.31
2023-05-12T12:56:44.468Z,20.17
2023-05-12T12:59:11.031Z,19.86
2023-05-12T13:01:37.948Z,19.59
2023-05-12T13:04:04.519Z,19.36
2023-05-12T13:06:31.081Z,19.18
2023-05-12T13:08:57.589Z,19.03
2023-05-12T13:11:24.038Z,18.91
2023-05-12T13:13:50.559Z,18.82
2023-05-12T13:16:17.174Z,18.82
2023-05-12T13:18:44.256Z,18.83
2023-05-12T13:21:10.734Z,18.92
2023-05-12T13:23:37.493Z,19.34
2023-05-12T13:26:03.995Z,19.92
2023-05-12T13:28:30.761Z,20.07
2023-05-12T13:30:57.399Z,20.14
2023-05-12T13:33:24.193Z,20.20
2023-05-12T13:35:50.751Z,20.34
2023-05-12T13:38:17.323Z,20.41
2023-05-12T13:40:43.924Z,20.37
2023-05-12T13:43:10.383Z,20.15
2023-05-12T13:45:36.893Z,19.90
2023-05-12T13:48:03.564Z,19.72
2023-05-12T13:50:31.386Z,19.61
2023-05-12T13:52:59.898Z,19.40
2023-05-12T13:55:26.635Z,19.21
2023-05-12T13:57:53.350Z,19.08
2023-05-12T14:00:20.152Z,19.06
2023-05-12T14:02:46.857Z,19.07
2023-05-12T14:05:13.707Z,18.99
2023-05-12T14:07:40.239Z,18.99
2023-05-12T14:10:07.444Z,18.98
2023-05-12T14:12:33.993Z,18.95
2023-05-12T14:15:12.295Z,18.91
2023-05-12T14:17:46.992Z,18.88
2023-05-12T14:20:13.677Z,18.82
2023-05-12T14:22:40.083Z,18.78
2023-05-12T14:25:07.081Z,18.81
2023-05-12T14:27:33.545Z,18.87
2023-05-12T14:30:00.188Z,18.97
2023-05-12T14:32:26.891Z,19.01
2023-05-12T14:34:53.398Z,19.02
2023-05-12T14:37:19.914Z,19.12
2023-05-12T14:39:46.443Z,19.17
2023-05-12T14:42:13.003Z,19.24
2023-05-12T14:44:39.616Z,19.28
2023-05-12T14:47:08.765Z,19.22
2023-05-12T14:49:35.588Z,19.23
2023-05-12T14:52:02.869Z,19.25
2023-05-12T14:54:29.510Z,19.22
2023-05-12T14:56:56.197Z,19.13
2023-05-12T14:59:22.686Z,19.01
2023-05-12T15:01:49.437Z,18.92
2023-05-12T15:04:16.414Z,18.87
2023-05-12T15:06:42.933Z,18.81
2023-05-12T15:09:09.367Z,18.76
2023-05-12T15:11:35.881Z,18.65
2023-05-12T15:14:02.346Z,18.49
2023-05-12T15:16:29.057Z,18.32
2023-05-12T15:18:55.620Z,18.24
2023-05-12T15:21:22.220Z,18.15
2023-05-12T15:23:48.724Z,18.08
2023-05-12T15:28:47.621Z,17.99
2023-05-12T15:31:14.089Z,17.94
2023-05-12T15:33:40.805Z,17.91
2023-05-12T15:36:07.368Z,17.91
2023-05-12T15:38:33.765Z,17.92
2023-05-12T15:41:00.252Z,17.95
2023-05-12T15:43:26.900Z,17.93
2023-05-12T15:45:53.434Z,17.89
2023-05-12T15:48:20.252Z,17.81
2023-05-12T15:50:46.917Z,17.74
2023-05-12T15:53:13.458Z,17.66
2023-05-12T15:55:40.164Z,17.57
2023-05-12T15:58:06.731Z,17.48
2023-05-12T16:00:33.252Z,17.36
2023-05-12T16:02:59.977Z,17.26
2023-05-12T16:05:26.550Z,17.18
2023-05-12T16:07:53.187Z,17.08
2023-05-12T16:10:19.766Z,17.00
2023-05-12T16:12:46.199Z,16.92
2023-05-12T16:15:13.064Z,16.85
2023-05-12T16:17:39.666Z,16.80
2023-05-12T16:20:07.172Z,16.75
2023-05-12T16:22:34.294Z,16.71
2023-05-12T16:25:00.761Z,16.67
2023-05-12T16:27:27.190Z,16.66
2023-05-12T16:29:53.745Z,16.64
2023-05-12T16:32:20.294Z,16.60
2023-05-12T16:34:46.869Z,16.57
2023-05-12T16:37:13.281Z,16.53
2023-05-12T16:39:39.738Z,16.52
2023-05-12T16:42:07.001Z,16.50
2023-05-12T16:44:33.503Z,16.48
2023-05-12T16:46:59.974Z,16.45
2023-05-12T16:49:26.455Z,16.42
2023-05-12T16:51:52.958Z,16.39
2023-05-12T16:54:19.470Z,16.35
2023-05-12T16:56:45.927Z,16.32
2023-05-12T16:59:12.473Z,16.28
2023-05-12T17:01:39.068Z,16.25
2023-05-12T17:04:06.279Z,16.22
2023-05-12T17:06:32.836Z,16.20
2023-05-12T17:08:59.339Z,16.16
2023-05-12T17:11:25.799Z,16.14
2023-05-12T17:13:52.230Z,16.12
2023-05-12T17:16:18.696Z,16.09
2023-05-12T17:21:14.974Z,16.03
2023-05-12T17:23:41.466Z,15.99
2023-05-12T17:26:07.944Z,15.95
2023-05-12T17:28:34.508Z,15.90
2023-05-12T17:31:01.064Z,15.84
2023-05-12T17:33:27.797Z,15.80
2023-05-12T17:38:26.180Z,15.71
2023-05-12T17:40:52.771Z,15.66
2023-05-12T17:43:19.337Z,15.63
2023-05-12T17:45:46.093Z,15.59
2023-05-12T17:48:12.593Z,15.55
2023-05-12T17:50:39.473Z,15.49
2023-05-12T17:53:06.869Z,15.45
2023-05-12T17:55:33.729Z,15.38
2023-05-12T17:58:00.282Z,15.33
2023-05-12T18:00:27.208Z,15.29
2023-05-12T18:02:54.055Z,15.24
2023-05-12T18:05:20.668Z,15.16
2023-05-12T18:07:47.386Z,15.08
2023-05-12T18:10:13.928Z,15.02
2023-05-12T18:12:40.371Z,14.93
2023-05-12T18:15:07.887Z,14.84
2023-05-12T18:17:34.958Z,14.75
2023-05-12T18:20:01.672Z,14.68
2023-05-12T18:22:28.117Z,14.62
2023-05-12T18:24:54.970Z,14.58
2023-05-12T18:27:21.475Z,14.55
2023-05-12T18:29:48.388Z,14.54
2023-05-12T18:32:15.137Z,14.53
2023-05-12T18:34:55.556Z,14.51
2023-05-12T18:37:22.376Z,14.49
2023-05-12T18:39:49.127Z,14.46
2023-05-12T18:42:15.542Z,14.40
2023-05-12T18:44:42.000Z,14.37
2023-05-12T18:47:09.096Z,14.32
2023-05-12T18:49:36.612Z,14.27
2023-05-12T18:52:03.722Z,14.20
2023-05-12T18:54:30.330Z,14.13
2023-05-12T18:56:56.777Z,14.04
2023-05-12T18:59:23.248Z,13.96
2023-05-12T19:01:49.784Z,13.86
2023-05-12T19:04:16.440Z,13.76
2023-05-12T19:06:42.902Z,13.69
2023-05-12T19:09:09.511Z,13.59
2023-05-12T19:11:35.956Z,13.48
2023-05-12T19:14:02.533Z,13.40
2023-05-12T19:16:28.979Z,13.32
2023-05-12T19:18:55.742Z,13.27
2023-05-12T19:21:22.289Z,13.22
2023-05-12T19:23:49.049Z,13.17
2023-05-12T19:26:15.587Z,13.13
2023-05-12T19:28:42.065Z,13.08
2023-05-12T19:31:08.564Z,13.03
2023-05-12T19:33:35.310Z,12.96
2023-05-12T19:36:02.039Z,12.89
2023-05-12T19:38:28.675Z,12.85
2023-05-12T19:40:55.204Z,12.82
2023-05-12T19:43:21.991Z,12.79
2023-05-12T19:45:48.749Z,12.75
2023-05-12T19:48:15.344Z,12.71
2023-05-12T19:50:41.848Z,12.67
2023-05-12T19:53:08.265Z,12.65
2023-05-12T19:55:34.703Z,12.62
2023-05-12T19:58:01.137Z,12.57
2023-05-12T20:00:27.658Z,12.51
2023-05-12T20:02:54.306Z,12.45
2023-05-12T20:05:21.148Z,12.38
2023-05-12T20:07:48.044Z,12.32
2023-05-12T20:10:14.541Z,12.24
2023-05-12T20:12:41.111Z,12.16
2023-05-12T20:15:08.468Z,12.08
2023-05-12T20:17:35.029Z,12.01
2023-05-12T20:20:01.667Z,11.94
2023-05-12T20:22:28.113Z,11.88
2023-05-12T20:24:54.598Z,11.81
2023-05-12T20:27:21.078Z,11.76
2023-05-12T20:29:47.468Z,11.71
2023-05-12T20:32:14.469Z,11.64
2023-05-12T20:34:41.149Z,11.58
2023-05-12T20:37:07.814Z,11.54
2023-05-12T20:39:34.280Z,11.52
2023-05-12T20:42:00.801Z,11.47
2023-05-12T20:44:27.261Z,11.43
2023-05-12T20:46:53.931Z,11.39
2023-05-12T20:49:20.483Z,11.33
2023-05-12T20:51:46.989Z,11.29
2023-05-12T20:54:13.514Z,11.25
2023-05-12T20:56:40.140Z,11.20
2023-05-12T20:59:06.576Z,11.17
2023-05-12T21:01:33.060Z,11.13
2023-05-12T21:03:59.582Z,11.08
2023-05-12T21:06:26.449Z,11.05
2023-05-12T21:08:53.088Z,11.04
2023-05-12T21:11:19.733Z,11.02
2023-05-12T21:13:47.093Z,10.88
2023-05-12T21:16:14.632Z,10.96
2023-05-12T21:18:41.404Z,10.99
2023-05-12T21:21:08.004Z,11.01
2023-05-12T21:23:35.392Z,11.06
2023-05-12T21:26:02.063Z,11.09
2023-05-12T21:28:28.528Z,11.09
2023-05-12T21:30:55.179Z,11.07
2023-05-12T21:33:21.822Z,11.04
2023-05-12T21:35:48.535Z,11.01
2023-05-12T21:38:15.762Z,10.98
2023-05-12T21:40:42.304Z,10.93
2023-05-12T21:43:08.772Z,10.90
2023-05-12T21:45:35.294Z,10.87
2023-05-12T21:48:01.949Z,10.84
2023-05-12T21:50:28.597Z,10.80
2023-05-12T21:52:55.137Z,10.75
2023-05-12T21:55:21.989Z,10.70
2023-05-12T21:57:48.382Z,10.63
2023-05-12T22:00:15.381Z,10.54
2023-05-12T22:02:41.914Z,10.44
2023-05-12T22:05:08.637Z,10.34
2023-05-12T22:07:35.325Z,10.22
2023-05-12T22:10:02.254Z,10.10
2023-05-12T22:12:28.739Z,9.96
2023-05-12T22:14:55.234Z,9.83
2023-05-12T22:17:21.757Z,9.71
2023-05-12T22:19:48.414Z,9.60
2023-05-12T22:22:14.921Z,9.51
2023-05-12T22:24:41.464Z,9.41
2023-05-12T22:27:08.050Z,9.32
2023-05-12T22:29:34.478Z,9.23
2023-05-12T22:32:00.963Z,9.14
2023-05-12T22:34:27.449Z,9.05
2023-05-12T22:36:53.983Z,8.96
2023-05-12T22:39:20.546Z,8.89
2023-05-12T22:41:47.114Z,8.82
2023-05-12T22:44:13.732Z,8.76
2023-05-12T22:46:40.397Z,8.69
2023-05-12T22:49:06.918Z,8.62
2023-05-12T22:51:33.566Z,8.55
2023-05-12T22:54:00.018Z,8.52
2023-05-12T22:56:26.554Z,8.43
2023-05-12T22:58:53.104Z,8.38
2023-05-12T23:01:19.697Z,8.33
2023-05-12T23:03:46.432Z,8.28
2023-05-12T23:06:12.873Z,8.24
2023-05-12T23:08:39.374Z,8.17
2023-05-12T23:11:05.917Z,8.11
2023-05-12T23:13:32.383Z,8.06
2023-05-12T23:15:59.011Z,8.01
2023-05-12T23:18:25.591Z,7.97
2023-05-12T23:20:52.253Z,7.92
2023-05-12T23:23:18.828Z,7.87
2023-05-12T23:25:46.926Z,7.82
2023-05-12T23:28:13.563Z,7.75
2023-05-12T23:30:40.036Z,7.66
2023-05-12T23:33:07.005Z,7.59
2023-05-12T23:35:33.530Z,7.55
2023-05-12T23:38:00.127Z,7.51
2023-05-12T23:40:26.579Z,7.43
2023-05-12T23:42:53.199Z,7.37
2023-05-12T23:45:20.210Z,7.31
2023-05-12T23:47:46.693Z,7.28
2023-05-12T23:50:13.315Z,7.24
2023-05-12T23:52:39.866Z,7.21
2023-05-12T23:55:07.442Z,7.17
2023-05-12T23:57:33.877Z,7.12
